sensor_id;sensor_type;location;lat;lon;timestamp;pressure;altitude;pressure_sealevel;temperature;humidity
829;BME280;396;52.558;13.188;2022-09-25T00:01:33;100784.50;;;12.99;100.00
829;BME280;396;52.558;13.188;2022-09-25T00:03:59;100791.41;;;13.05;100.00
829;BME280;396;52.558;13.188;2022-09-25T00:06:27;100784.88;;;13.06;100.00
829;BME280;396;52.558;13.188;2022-09-25T00:08:54;100782.31;;;13.09;100.00
829;BME280;396;52.558;13.188;2022-09-25T00:11:22;100788.19;;;13.03;100.00
829;BME280;396;52.558;13.188;2022-09-25T00:13:51;100773.00;;;13.02;100.00
829;BME280;396;52.558;13.188;2022-09-25T00:16:19;100775.09;;;13.05;100.00
829;BME280;396;52.558;13.188;2022-09-25T00:18:46;100773.47;;;13.04;100.00
829;BME280;396;52.558;13.188;2022-09-25T00:21:31;100773.81;;;13.02;100.00
829;BME280;396;52.558;13.188;2022-09-25T00:23:58;100761.19;;;13.06;100.00
829;BME280;396;52.558;13.188;2022-09-25T00:26:26;100763.91;;;13.06;100.00
829;BME280;396;52.558;13.188;2022-09-25T00:28:54;100760.22;;;13.02;100.00
829;BME280;396;52.558;13.188;2022-09-25T00:31:22;100758.75;;;13.05;100.00
829;BME280;396;52.558;13.188;2022-09-25T00:33:49;100760.22;;;13.02;100.00
829;BME280;396;52.558;13.188;2022-09-25T00:36:16;100754.28;;;13.00;100.00
829;BME280;396;52.558;13.188;2022-09-25T00:38:43;100760.03;;;12.99;100.00
829;BME280;396;52.558;13.188;2022-09-25T00:41:14;100758.06;;;12.91;100.00
829;BME280;396;52.558;13.188;2022-09-25T00:43:43;100762.38;;;12.92;100.00
829;BME280;396;52.558;13.188;2022-09-25T00:46:14;100758.06;;;12.91;100.00
829;BME280;396;52.558;13.188;2022-09-25T00:48:47;100755.84;;;12.93;100.00
829;BME280;396;52.558;13.188;2022-09-25T00:51:17;100759.66;;;12.92;100.00
829;BME280;396;52.558;13.188;2022-09-25T00:53:46;100763.19;;;12.92;100.00
829;BME280;396;52.558;13.188;2022-09-25T00:56:13;100763.50;;;12.91;100.00
829;BME280;396;52.558;13.188;2022-09-25T00:58:40;100757.09;;;12.86;100.00
829;BME280;396;52.558;13.188;2022-09-25T01:01:08;100763.31;;;12.87;100.00
829;BME280;396;52.558;13.188;2022-09-25T01:03:36;100757.69;;;12.83;100.00
829;BME280;396;52.558;13.188;2022-09-25T01:06:05;100753.69;;;12.81;100.00
829;BME280;396;52.558;13.188;2022-09-25T01:08:33;100759.31;;;12.84;100.00
829;BME280;396;52.558;13.188;2022-09-25T01:11:00;100749.25;;;12.85;100.00
829;BME280;396;52.558;13.188;2022-09-25T01:13:27;100756.41;;;12.81;100.00
829;BME280;396;52.558;13.188;2022-09-25T01:16:01;100749.53;;;12.83;100.00
829;BME280;396;52.558;13.188;2022-09-25T01:18:39;100753.88;;;12.84;100.00
829;BME280;396;52.558;13.188;2022-09-25T01:21:27;100752.25;;;12.83;100.00
829;BME280;396;52.558;13.188;2022-09-25T01:24:17;100744.09;;;12.83;100.00
829;BME280;396;52.558;13.188;2022-09-25T01:29:53;100744.00;;;12.88;100.00
829;BME280;396;52.558;13.188;2022-09-25T01:32:28;100736.78;;;12.84;100.00
829;BME280;396;52.558;13.188;2022-09-25T01:35:00;100735.94;;;12.83;100.00
829;BME280;396;52.558;13.188;2022-09-25T01:37:31;100736.72;;;12.75;100.00
829;BME280;396;52.558;13.188;2022-09-25T01:40:06;100736.78;;;12.84;100.00
829;BME280;396;52.558;13.188;2022-09-25T01:42:39;100742.88;;;12.90;100.00
829;BME280;396;52.558;13.188;2022-09-25T01:45:12;100741.88;;;12.85;100.00
829;BME280;396;52.558;13.188;2022-09-25T01:47:44;100736.31;;;12.91;100.00
829;BME280;396;52.558;13.188;2022-09-25T01:50:16;100740.78;;;12.86;100.00
829;BME280;396;52.558;13.188;2022-09-25T01:52:48;100735.34;;;12.86;100.00
829;BME280;396;52.558;13.188;2022-09-25T01:55:20;100733.91;;;12.89;100.00
829;BME280;396;52.558;13.188;2022-09-25T01:57:52;100733.13;;;12.88;100.00
829;BME280;396;52.558;13.188;2022-09-25T02:00:23;100721.75;;;12.86;100.00
829;BME280;396;52.558;13.188;2022-09-25T02:02:54;100729.91;;;12.86;100.00
829;BME280;396;52.558;13.188;2022-09-25T02:05:24;100730.41;;;12.88;100.00
829;BME280;396;52.558;13.188;2022-09-25T02:07:55;100732.00;;;12.90;100.00
829;BME280;396;52.558;13.188;2022-09-25T02:10:28;100726.38;;;12.86;100.00
829;BME280;396;52.558;13.188;2022-09-25T02:13:03;100730.66;;;12.78;100.00
829;BME280;396;52.558;13.188;2022-09-25T02:15:34;100727.63;;;12.80;100.00
829;BME280;396;52.558;13.188;2022-09-25T02:18:03;100721.88;;;12.81;100.00
829;BME280;396;52.558;13.188;2022-09-25T02:20:52;100723.81;;;12.81;100.00
829;BME280;396;52.558;13.188;2022-09-25T02:23:24;100722.03;;;12.76;100.00
829;BME280;396;52.558;13.188;2022-09-25T02:25:56;100721.34;;;12.71;100.00
829;BME280;396;52.558;13.188;2022-09-25T02:28:26;100721.66;;;12.69;100.00
829;BME280;396;52.558;13.188;2022-09-25T02:30:56;100726.78;;;12.71;100.00
829;BME280;396;52.558;13.188;2022-09-25T02:33:24;100724.69;;;12.68;100.00
829;BME280;396;52.558;13.188;2022-09-25T02:35:51;100727.41;;;12.68;100.00
829;BME280;396;52.558;13.188;2022-09-25T02:38:19;100730.78;;;12.73;100.00
829;BME280;396;52.558;13.188;2022-09-25T02:40:50;100728.06;;;12.73;100.00
829;BME280;396;52.558;13.188;2022-09-25T02:43:26;100725.34;;;12.73;100.00
829;BME280;396;52.558;13.188;2022-09-25T02:46:04;100723.88;;;12.67;100.00
829;BME280;396;52.558;13.188;2022-09-25T02:48:40;100717.16;;;12.65;100.00
829;BME280;396;52.558;13.188;2022-09-25T02:51:14;100721.00;;;12.63;100.00
829;BME280;396;52.558;13.188;2022-09-25T02:53:46;100724.03;;;12.62;100.00
829;BME280;396;52.558;13.188;2022-09-25T02:56:20;100730.41;;;12.57;100.00
829;BME280;396;52.558;13.188;2022-09-25T02:58:53;100722.72;;;12.59;100.00
829;BME280;396;52.558;13.188;2022-09-25T03:01:24;100727.22;;;12.64;100.00
829;BME280;396;52.558;13.188;2022-09-25T03:03:54;100722.59;;;12.65;100.00
829;BME280;396;52.558;13.188;2022-09-25T03:06:23;100721.59;;;12.60;100.00
829;BME280;396;52.558;13.188;2022-09-25T03:08:53;100727.22;;;12.64;100.00
829;BME280;396;52.558;13.188;2022-09-25T03:11:21;100723.88;;;12.67;100.00
829;BME280;396;52.558;13.188;2022-09-25T03:13:55;100727.22;;;12.64;100.00
829;BME280;396;52.558;13.188;2022-09-25T03:16:30;100725.63;;;12.63;100.00
829;BME280;396;52.558;13.188;2022-09-25T03:18:59;100714.75;;;12.63;100.00
829;BME280;396;52.558;13.188;2022-09-25T03:21:25;100713.78;;;12.59;100.00
829;BME280;396;52.558;13.188;2022-09-25T03:23:51;100715.38;;;12.60;100.00
829;BME280;396;52.558;13.188;2022-09-25T03:26:21;100710.88;;;12.55;100.00
829;BME280;396;52.558;13.188;2022-09-25T03:28:47;100713.44;;;12.60;100.00
829;BME280;396;52.558;13.188;2022-09-25T03:31:14;100704.22;;;12.70;100.00
829;BME280;396;52.558;13.188;2022-09-25T03:33:42;100705.53;;;12.73;100.00
829;BME280;396;52.558;13.188;2022-09-25T03:36:10;100709.56;;;12.75;100.00
829;BME280;396;52.558;13.188;2022-09-25T03:38:37;100704.13;;;12.75;100.00
829;BME280;396;52.558;13.188;2022-09-25T03:41:06;100705.06;;;12.71;100.00
829;BME280;396;52.558;13.188;2022-09-25T03:43:33;100706.00;;;12.66;100.00
829;BME280;396;52.558;13.188;2022-09-25T03:46:01;100704.69;;;12.63;100.00
829;BME280;396;52.558;13.188;2022-09-25T03:48:28;100699.56;;;12.62;100.00
829;BME280;396;52.558;13.188;2022-09-25T03:50:56;100701.78;;;12.60;100.00
829;BME280;396;52.558;13.188;2022-09-25T03:53:23;100700.03;;;12.64;100.00
829;BME280;396;52.558;13.188;2022-09-25T03:55:49;100696.16;;;12.56;100.00
829;BME280;396;52.558;13.188;2022-09-25T03:58:16;100698.88;;;12.56;100.00
829;BME280;396;52.558;13.188;2022-09-25T04:00:44;100696.75;;;12.45;100.00
829;BME280;396;52.558;13.188;2022-09-25T04:03:11;100698.78;;;12.39;100.00
829;BME280;396;52.558;13.188;2022-09-25T04:05:37;100691.75;;;12.38;100.00
829;BME280;396;52.558;13.188;2022-09-25T04:08:05;100693.47;;;12.34;100.00
829;BME280;396;52.558;13.188;2022-09-25T04:10:32;100690.47;;;12.35;100.00
829;BME280;396;52.558;13.188;2022-09-25T04:13:03;100689.78;;;12.30;100.00
829;BME280;396;52.558;13.188;2022-09-25T04:15:29;100695.38;;;12.33;100.00
829;BME280;396;52.558;13.188;2022-09-25T04:17:56;100694.28;;;12.34;100.00
829;BME280;396;52.558;13.188;2022-09-25T04:20:23;100692.69;;;12.33;100.00
829;BME280;396;52.558;13.188;2022-09-25T04:22:49;100692.63;;;12.25;100.00
829;BME280;396;52.558;13.188;2022-09-25T04:25:17;100701.09;;;12.23;100.00
829;BME280;396;52.558;13.188;2022-09-25T04:27:45;100698.50;;;12.18;100.00
829;BME280;396;52.558;13.188;2022-09-25T04:30:13;100701.34;;;12.13;100.00
829;BME280;396;52.558;13.188;2022-09-25T04:32:40;100705.16;;;12.12;100.00
829;BME280;396;52.558;13.188;2022-09-25T04:35:24;100704.16;;;12.08;100.00
829;BME280;396;52.558;13.188;2022-09-25T04:37:51;100706.88;;;12.08;100.00
829;BME280;396;52.558;13.188;2022-09-25T04:40:19;100713.94;;;12.09;100.00
829;BME280;396;52.558;13.188;2022-09-25T04:42:45;100704.66;;;12.10;100.00
829;BME280;396;52.558;13.188;2022-09-25T04:45:12;100702.88;;;12.05;100.00
829;BME280;396;52.558;13.188;2022-09-25T04:47:38;100703.66;;;12.06;100.00
829;BME280;396;52.558;13.188;2022-09-25T04:50:06;100707.72;;;11.95;100.00
829;BME280;396;52.558;13.188;2022-09-25T04:52:32;100700.22;;;11.92;100.00
829;BME280;396;52.558;13.188;2022-09-25T04:54:59;100704.00;;;11.91;100.00
829;BME280;396;52.558;13.188;2022-09-25T04:57:27;100712.66;;;11.93;100.00
829;BME280;396;52.558;13.188;2022-09-25T04:59:53;100700.13;;;11.83;100.00
829;BME280;396;52.558;13.188;2022-09-25T05:02:20;100703.84;;;11.87;100.00
829;BME280;396;52.558;13.188;2022-09-25T05:04:51;100706.56;;;11.87;100.00
829;BME280;396;52.558;13.188;2022-09-25T05:07:17;100703.22;;;11.76;100.00
829;BME280;396;52.558;13.188;2022-09-25T05:09:44;100702.84;;;11.83;100.00
829;BME280;396;52.558;13.188;2022-09-25T05:12:10;100710.44;;;11.81;100.00
829;BME280;396;52.558;13.188;2022-09-25T05:14:38;100702.72;;;11.88;100.00
829;BME280;396;52.558;13.188;2022-09-25T05:17:05;100702.84;;;11.83;100.00
829;BME280;396;52.558;13.188;2022-09-25T05:19:34;100705.66;;;11.78;100.00
829;BME280;396;52.558;13.188;2022-09-25T05:22:01;100711.47;;;11.71;100.00
829;BME280;396;52.558;13.188;2022-09-25T05:24:28;100718.16;;;11.65;100.00
829;BME280;396;52.558;13.188;2022-09-25T05:26:55;100717.25;;;11.56;100.00
829;BME280;396;52.558;13.188;2022-09-25T05:29:23;100721.13;;;11.63;100.00
829;BME280;396;52.558;13.188;2022-09-25T05:31:51;100717.03;;;11.66;100.00
829;BME280;396;52.558;13.188;2022-09-25T05:34:17;100720.22;;;11.68;100.00
829;BME280;396;52.558;13.188;2022-09-25T05:36:45;100727.28;;;11.69;100.00
829;BME280;396;52.558;13.188;2022-09-25T05:39:11;100724.97;;;11.62;100.00
829;BME280;396;52.558;13.188;2022-09-25T05:41:38;100718.94;;;11.66;100.00
829;BME280;396;52.558;13.188;2022-09-25T05:44:04;100728.38;;;11.68;100.00
829;BME280;396;52.558;13.188;2022-09-25T05:46:33;100725.38;;;11.70;100.00
829;BME280;396;52.558;13.188;2022-09-25T05:49:02;100718.50;;;11.72;100.00
829;BME280;396;52.558;13.188;2022-09-25T05:51:28;100716.31;;;11.74;100.00
829;BME280;396;52.558;13.188;2022-09-25T05:53:55;100721.94;;;11.78;100.00
829;BME280;396;52.558;13.188;2022-09-25T05:56:22;100715.31;;;11.84;100.00
829;BME280;396;52.558;13.188;2022-09-25T05:58:49;100713.91;;;11.86;100.00
829;BME280;396;52.558;13.188;2022-09-25T06:01:16;100712.06;;;11.96;100.00
829;BME280;396;52.558;13.188;2022-09-25T06:03:43;100716.72;;;12.04;100.00
829;BME280;396;52.558;13.188;2022-09-25T06:06:11;100720.94;;;12.10;100.00
829;BME280;396;52.558;13.188;2022-09-25T06:08:37;100720.22;;;12.18;100.00
829;BME280;396;52.558;13.188;2022-09-25T06:11:04;100712.56;;;12.20;100.00
829;BME280;396;52.558;13.188;2022-09-25T06:13:32;100715.13;;;12.25;100.00
829;BME280;396;52.558;13.188;2022-09-25T06:16:01;100719.34;;;12.31;100.00
829;BME280;396;52.558;13.188;2022-09-25T06:18:29;100710.56;;;12.34;100.00
829;BME280;396;52.558;13.188;2022-09-25T06:21:00;100710.16;;;12.41;100.00
829;BME280;396;52.558;13.188;2022-09-25T06:23:29;100715.81;;;12.53;100.00
829;BME280;396;52.558;13.188;2022-09-25T06:25:59;100720.19;;;12.63;100.00
829;BME280;396;52.558;13.188;2022-09-25T06:28:26;100729.00;;;12.69;100.00
829;BME280;396;52.558;13.188;2022-09-25T06:30:53;100719.63;;;12.83;100.00
829;BME280;396;52.558;13.188;2022-09-25T06:33:20;100720.50;;;12.93;100.00
829;BME280;396;52.558;13.188;2022-09-25T06:35:47;100722.75;;;12.99;100.00
829;BME280;396;52.558;13.188;2022-09-25T06:38:16;100719.06;;;12.95;100.00
829;BME280;396;52.558;13.188;2022-09-25T06:40:44;100720.66;;;12.96;100.00
829;BME280;396;52.558;13.188;2022-09-25T06:43:11;100725.75;;;12.89;100.00
829;BME280;396;52.558;13.188;2022-09-25T06:45:38;100716.81;;;12.88;100.00
829;BME280;396;52.558;13.188;2022-09-25T06:48:07;100725.94;;;12.93;100.00
829;BME280;396;52.558;13.188;2022-09-25T06:50:38;100714.78;;;13.03;100.00
829;BME280;396;52.558;13.188;2022-09-25T06:53:05;100724.09;;;13.10;100.00
829;BME280;396;52.558;13.188;2022-09-25T06:55:32;100716.44;;;13.21;100.00
829;BME280;396;52.558;13.188;2022-09-25T06:58:00;100731.06;;;13.34;100.00
829;BME280;396;52.558;13.188;2022-09-25T07:00:27;100726.28;;;13.40;100.00
829;BME280;396;52.558;13.188;2022-09-25T07:02:53;100730.31;;;13.42;100.00
829;BME280;396;52.558;13.188;2022-09-25T07:05:39;100719.56;;;13.46;100.00
829;BME280;396;52.558;13.188;2022-09-25T07:08:06;100725.19;;;13.49;100.00
829;BME280;396;52.558;13.188;2022-09-25T07:10:33;100727.59;;;13.51;100.00
829;BME280;396;52.558;13.188;2022-09-25T07:13:01;100731.75;;;13.57;100.00
829;BME280;396;52.558;13.188;2022-09-25T07:15:28;100719.28;;;13.56;100.00
829;BME280;396;52.558;13.188;2022-09-25T07:17:55;100717.03;;;13.58;100.00
829;BME280;396;52.558;13.188;2022-09-25T07:20:21;100717.84;;;13.58;100.00
829;BME280;396;52.558;13.188;2022-09-25T07:22:48;100708.25;;;13.61;100.00
829;BME280;396;52.558;13.188;2022-09-25T07:25:14;100705.19;;;13.62;100.00
829;BME280;396;52.558;13.188;2022-09-25T07:27:41;100713.06;;;13.64;100.00
829;BME280;396;52.558;13.188;2022-09-25T07:30:10;100711.13;;;13.65;100.00
829;BME280;396;52.558;13.188;2022-09-25T07:32:36;100715.44;;;13.66;100.00
829;BME280;396;52.558;13.188;2022-09-25T07:35:03;100712.41;;;13.67;100.00
829;BME280;396;52.558;13.188;2022-09-25T07:37:30;100714.97;;;13.72;100.00
829;BME280;396;52.558;13.188;2022-09-25T07:39:56;100717.56;;;13.77;100.00
829;BME280;396;52.558;13.188;2022-09-25T07:42:23;100714.97;;;13.81;100.00
829;BME280;396;52.558;13.188;2022-09-25T07:44:49;100718.19;;;13.83;100.00
829;BME280;396;52.558;13.188;2022-09-25T07:47:17;100723.00;;;13.86;100.00
829;BME280;396;52.558;13.188;2022-09-25T07:49:44;100723.00;;;13.86;100.00
829;BME280;396;52.558;13.188;2022-09-25T07:52:10;100725.41;;;13.87;100.00
829;BME280;396;52.558;13.188;2022-09-25T07:54:37;100718.66;;;13.94;100.00
829;BME280;396;52.558;13.188;2022-09-25T07:57:04;100721.56;;;13.97;100.00
829;BME280;396;52.558;13.188;2022-09-25T07:59:30;100715.47;;;14.00;100.00
829;BME280;396;52.558;13.188;2022-09-25T08:01:56;100713.88;;;14.08;100.00
829;BME280;396;52.558;13.188;2022-09-25T08:04:24;100717.06;;;14.10;100.00
829;BME280;396;52.558;13.188;2022-09-25T08:06:51;100705.38;;;14.09;100.00
829;BME280;396;52.558;13.188;2022-09-25T08:09:17;100705.84;;;14.11;100.00
829;BME280;396;52.558;13.188;2022-09-25T08:11:44;100710.03;;;14.18;100.00
829;BME280;396;52.558;13.188;2022-09-25T08:14:10;100706.63;;;14.21;99.83
829;BME280;396;52.558;13.188;2022-09-25T08:16:38;100702.00;;;14.21;98.28
829;BME280;396;52.558;13.188;2022-09-25T08:19:05;100702.81;;;14.22;97.09
829;BME280;396;52.558;13.188;2022-09-25T08:21:33;100699.41;;;14.33;97.46
829;BME280;396;52.558;13.188;2022-09-25T08:24:00;100705.00;;;14.54;98.09
829;BME280;396;52.558;13.188;2022-09-25T08:26:26;100707.81;;;14.84;98.98
829;BME280;396;52.558;13.188;2022-09-25T08:28:53;100710.44;;;15.10;97.49
829;BME280;396;52.558;13.188;2022-09-25T08:31:20;100705.50;;;15.33;97.15
829;BME280;396;52.558;13.188;2022-09-25T08:33:47;100711.31;;;15.52;95.51
829;BME280;396;52.558;13.188;2022-09-25T08:36:15;100706.56;;;15.70;93.11
829;BME280;396;52.558;13.188;2022-09-25T08:38:43;100707.81;;;15.94;91.95
829;BME280;396;52.558;13.188;2022-09-25T08:41:15;100705.06;;;16.14;91.11
829;BME280;396;52.558;13.188;2022-09-25T08:43:48;100698.16;;;16.17;89.27
829;BME280;396;52.558;13.188;2022-09-25T08:46:20;100702.13;;;16.20;87.47
829;BME280;396;52.558;13.188;2022-09-25T08:49:06;100704.25;;;16.35;87.02
829;BME280;396;52.558;13.188;2022-09-25T08:51:37;100704.41;;;16.51;87.96
829;BME280;396;52.558;13.188;2022-09-25T08:54:06;100704.41;;;16.51;87.10
829;BME280;396;52.558;13.188;2022-09-25T08:56:33;100705.94;;;16.60;85.60
829;BME280;396;52.558;13.188;2022-09-25T08:59:04;100706.94;;;16.68;86.44
829;BME280;396;52.558;13.188;2022-09-25T09:01:41;100703.09;;;16.69;83.94
829;BME280;396;52.558;13.188;2022-09-25T09:04:14;100697.81;;;16.64;82.36
829;BME280;396;52.558;13.188;2022-09-25T09:06:46;100706.50;;;16.66;81.57
829;BME280;396;52.558;13.188;2022-09-25T09:09:18;100698.28;;;16.66;81.53
829;BME280;396;52.558;13.188;2022-09-25T09:11:50;100697.38;;;16.62;80.62
829;BME280;396;52.558;13.188;2022-09-25T09:14:20;100686.97;;;16.55;80.29
829;BME280;396;52.558;13.188;2022-09-25T09:16:51;100695.28;;;16.47;80.45
829;BME280;396;52.558;13.188;2022-09-25T09:19:20;100693.44;;;16.38;79.51
829;BME280;396;52.558;13.188;2022-09-25T09:21:51;100684.78;;;16.36;81.04
829;BME280;396;52.558;13.188;2022-09-25T09:24:26;100679.75;;;16.26;82.78
829;BME280;396;52.558;13.188;2022-09-25T09:27:09;100680.19;;;16.28;83.11
829;BME280;396;52.558;13.188;2022-09-25T09:29:46;100685.56;;;16.37;83.87
829;BME280;396;52.558;13.188;2022-09-25T09:32:32;100682.28;;;16.44;81.41
829;BME280;396;52.558;13.188;2022-09-25T09:35:14;100690.28;;;16.49;80.37
829;BME280;396;52.558;13.188;2022-09-25T09:37:51;100682.19;;;16.52;79.26
829;BME280;396;52.558;13.188;2022-09-25T09:40:30;100685.50;;;16.58;76.79
829;BME280;396;52.558;13.188;2022-09-25T09:43:07;100684.84;;;16.61;76.76
829;BME280;396;52.558;13.188;2022-09-25T09:45:47;100678.44;;;16.57;76.57
829;BME280;396;52.558;13.188;2022-09-25T09:48:23;100675.38;;;16.58;77.58
829;BME280;396;52.558;13.188;2022-09-25T09:50:58;100672.28;;;16.48;77.86
829;BME280;396;52.558;13.188;2022-09-25T09:53:30;100672.41;;;16.63;76.96
829;BME280;396;52.558;13.188;2022-09-25T09:56:02;100668.34;;;16.82;77.54
829;BME280;396;52.558;13.188;2022-09-25T09:58:35;100673.97;;;16.98;79.00
829;BME280;396;52.558;13.188;2022-09-25T10:01:05;100669.75;;;17.00;77.58
829;BME280;396;52.558;13.188;2022-09-25T10:03:35;100661.19;;;17.02;78.28
829;BME280;396;52.558;13.188;2022-09-25T10:06:07;100669.41;;;17.02;77.06
829;BME280;396;52.558;13.188;2022-09-25T10:08:34;100653.09;;;16.93;76.49
829;BME280;396;52.558;13.188;2022-09-25T10:11:12;100659.25;;;16.90;78.00
829;BME280;396;52.558;13.188;2022-09-25T10:13:41;100658.44;;;16.89;79.96
829;BME280;396;52.558;13.188;2022-09-25T10:16:10;100663.69;;;16.95;80.71
829;BME280;396;52.558;13.188;2022-09-25T10:18:42;100664.84;;;17.06;80.28
829;BME280;396;52.558;13.188;2022-09-25T10:21:19;100664.25;;;17.12;76.71
829;BME280;396;52.558;13.188;2022-09-25T10:23:48;100661.06;;;17.23;76.41
829;BME280;396;52.558;13.188;2022-09-25T10:26:27;100662.06;;;17.30;77.22
829;BME280;396;52.558;13.188;2022-09-25T10:28:56;100658.88;;;17.40;76.37
829;BME280;396;52.558;13.188;2022-09-25T10:31:24;100654.63;;;17.43;74.96
829;BME280;396;52.558;13.188;2022-09-25T10:34:03;100658.03;;;17.52;74.91
829;BME280;396;52.558;13.188;2022-09-25T10:36:37;100652.88;;;17.63;76.95
829;BME280;396;52.558;13.188;2022-09-25T10:39:21;100655.00;;;17.82;74.79
829;BME280;396;52.558;13.188;2022-09-25T10:41:51;100654.91;;;17.78;75.62
829;BME280;396;52.558;13.188;2022-09-25T10:44:22;100658.91;;;18.09;73.98
829;BME280;396;52.558;13.188;2022-09-25T10:46:53;100652.31;;;18.41;73.84
829;BME280;396;52.558;13.188;2022-09-25T10:49:46;100650.75;;;18.72;70.25
829;BME280;396;52.558;13.188;2022-09-25T10:52:47;100646.78;;;19.01;70.82
829;BME280;396;52.558;13.188;2022-09-25T10:55:20;100654.72;;;19.22;71.38
829;BME280;396;52.558;13.188;2022-09-25T10:57:54;100663.56;;;19.31;68.46
829;BME280;396;52.558;13.188;2022-09-25T11:00:23;100663.88;;;19.30;67.30
829;BME280;396;52.558;13.188;2022-09-25T11:02:53;100664.34;;;19.32;65.85
829;BME280;396;52.558;13.188;2022-09-25T11:05:24;100668.31;;;19.34;66.56
829;BME280;396;52.558;13.188;2022-09-25T11:07:53;100663.16;;;19.49;66.86
829;BME280;396;52.558;13.188;2022-09-25T11:10:25;100657.00;;;19.55;67.34
829;BME280;396;52.558;13.188;2022-09-25T11:12:55;100660.13;;;19.54;67.39
829;BME280;396;52.558;13.188;2022-09-25T11:15:24;100659.16;;;19.62;67.76
829;BME280;396;52.558;13.188;2022-09-25T11:17:52;100640.03;;;20.08;69.10
829;BME280;396;52.558;13.188;2022-09-25T11:20:25;100653.59;;;20.85;65.15
829;BME280;396;52.558;13.188;2022-09-25T11:23:02;100647.22;;;21.95;63.57
829;BME280;396;52.558;13.188;2022-09-25T11:25:37;100652.78;;;23.28;55.33
829;BME280;396;52.558;13.188;2022-09-25T11:28:13;100655.91;;;24.03;52.20
829;BME280;396;52.558;13.188;2022-09-25T11:30:44;100653.25;;;25.24;49.31
829;BME280;396;52.558;13.188;2022-09-25T11:33:20;100649.44;;;25.99;47.40
829;BME280;396;52.558;13.188;2022-09-25T11:35:51;100651.56;;;26.39;47.66
829;BME280;396;52.558;13.188;2022-09-25T11:38:29;100648.00;;;26.35;45.92
829;BME280;396;52.558;13.188;2022-09-25T11:41:25;100649.34;;;26.72;45.71
829;BME280;396;52.558;13.188;2022-09-25T11:44:03;100637.75;;;27.22;43.83
829;BME280;396;52.558;13.188;2022-09-25T11:46:38;100645.00;;;27.84;43.12
829;BME280;396;52.558;13.188;2022-09-25T11:49:13;100643.25;;;27.29;42.71
829;BME280;396;52.558;13.188;2022-09-25T11:52:10;100639.22;;;26.48;43.60
829;BME280;396;52.558;13.188;2022-09-25T11:54:51;100627.75;;;25.65;45.10
829;BME280;396;52.558;13.188;2022-09-25T11:57:25;100631.81;;;25.42;45.98
829;BME280;396;52.558;13.188;2022-09-25T12:00:06;100623.91;;;25.30;46.53
829;BME280;396;52.558;13.188;2022-09-25T12:02:44;100617.94;;;25.39;46.34
829;BME280;396;52.558;13.188;2022-09-25T12:05:25;100623.06;;;26.28;45.37
829;BME280;396;52.558;13.188;2022-09-25T12:08:08;100626.34;;;27.13;42.97
829;BME280;396;52.558;13.188;2022-09-25T12:10:48;100622.19;;;27.62;41.32
829;BME280;396;52.558;13.188;2022-09-25T12:13:21;100618.84;;;27.78;41.03
829;BME280;396;52.558;13.188;2022-09-25T12:16:20;100617.75;;;27.69;39.12
829;BME280;396;52.558;13.188;2022-09-25T12:19:01;100627.88;;;27.86;39.91
829;BME280;396;52.558;13.188;2022-09-25T12:21:36;100620.59;;;27.61;38.98
829;BME280;396;52.558;13.188;2022-09-25T12:24:19;100619.03;;;27.60;39.21
829;BME280;396;52.558;13.188;2022-09-25T12:26:57;100612.66;;;27.94;39.84
829;BME280;396;52.558;13.188;2022-09-25T12:29:38;100607.38;;;28.54;40.73
829;BME280;396;52.558;13.188;2022-09-25T12:32:19;100614.75;;;28.13;38.48
829;BME280;396;52.558;13.188;2022-09-25T12:35:03;100605.34;;;26.63;40.83
829;BME280;396;52.558;13.188;2022-09-25T12:37:38;100605.75;;;24.86;43.46
829;BME280;396;52.558;13.188;2022-09-25T12:40:14;100600.44;;;23.60;46.63
829;BME280;396;52.558;13.188;2022-09-25T12:42:46;100594.28;;;23.11;50.35
829;BME280;396;52.558;13.188;2022-09-25T12:45:19;100584.44;;;22.66;50.62
829;BME280;396;52.558;13.188;2022-09-25T12:47:58;100588.91;;;21.92;52.90
829;BME280;396;52.558;13.188;2022-09-25T12:53:00;100581.16;;;21.08;57.06
829;BME280;396;52.558;13.188;2022-09-25T12:55:36;100584.00;;;21.15;57.28
829;BME280;396;52.558;13.188;2022-09-25T12:58:12;100573.84;;;21.49;58.19
829;BME280;396;52.558;13.188;2022-09-25T13:00:47;100572.00;;;21.30;56.87
829;BME280;396;52.558;13.188;2022-09-25T13:03:26;100575.25;;;22.07;55.04
829;BME280;396;52.558;13.188;2022-09-25T13:06:02;100570.59;;;22.59;52.45
829;BME280;396;52.558;13.188;2022-09-25T13:08:38;100573.25;;;22.45;53.04
829;BME280;396;52.558;13.188;2022-09-25T13:11:10;100569.22;;;22.31;53.06
829;BME280;396;52.558;13.188;2022-09-25T13:13:41;100569.19;;;22.28;53.78
829;BME280;396;52.558;13.188;2022-09-25T13:16:09;100573.75;;;22.13;53.44
829;BME280;396;52.558;13.188;2022-09-25T13:18:38;100568.75;;;21.88;53.70
829;BME280;396;52.558;13.188;2022-09-25T13:21:22;100564.09;;;21.59;55.34
829;BME280;396;52.558;13.188;2022-09-25T13:23:50;100562.13;;;21.29;57.42
829;BME280;396;52.558;13.188;2022-09-25T13:26:21;100567.72;;;20.76;57.37
829;BME280;396;52.558;13.188;2022-09-25T13:28:52;100559.00;;;20.48;59.64
829;BME280;396;52.558;13.188;2022-09-25T13:31:22;100564.25;;;20.33;59.26
829;BME280;396;52.558;13.188;2022-09-25T13:34:01;100565.16;;;20.18;59.66
829;BME280;396;52.558;13.188;2022-09-25T13:36:40;100564.19;;;20.07;59.80
829;BME280;396;52.558;13.188;2022-09-25T13:39:17;100555.25;;;19.90;61.29
829;BME280;396;52.558;13.188;2022-09-25T13:42:06;100556.56;;;19.77;63.34